createdAt,value
2023-05-20T00:00:19.875Z,101527.91
2023-05-20T00:02:46.472Z,101524.47
2023-05-20T00:05:12.920Z,101510.63
2023-05-20T00:07:39.803Z,101531.69
2023-05-20T00:10:06.728Z,101505.72
2023-05-20T00:12:33.269Z,101528.03
2023-05-20T00:14:59.708Z,101516.53
2023-05-20T00:17:28.130Z,101421.63
2023-05-20T00:19:54.779Z,101520.06
2023-05-20T00:22:21.634Z,101508.34
2023-05-20T00:24:48.096Z,101504.66
2023-05-20T00:27:14.556Z,101546.59
2023-05-20T00:29:40.977Z,101548.50
2023-05-20T00:32:07.786Z,101531.38
2023-05-20T00:34:34.390Z,101527.06
2023-05-20T00:37:00.801Z,101549.44
2023-05-20T00:39:27.250Z,101491.94
2023-05-20T00:41:53.716Z,101471.91
2023-05-20T00:44:23.883Z,101518.69
2023-05-20T00:46:50.475Z,101538.66
2023-05-20T00:49:17.473Z,101445.97
2023-05-20T00:51:44.054Z,101536.00
2023-05-20T00:54:10.771Z,101413.50
2023-05-20T00:56:37.307Z,101517.41
2023-05-20T00:59:04.719Z,101473.25
2023-05-20T01:01:31.093Z,101508.44
2023-05-20T01:03:57.533Z,101495.41
2023-05-20T01:06:24.127Z,101507.72
2023-05-20T01:08:50.654Z,101520.28
2023-05-20T01:11:35.571Z,101506.50
2023-05-20T01:14:06.608Z,101506.56
2023-05-20T01:16:35.478Z,101507.16
2023-05-20T01:19:03.955Z,101533.47
2023-05-20T01:21:32.235Z,101509.44
2023-05-20T01:23:58.681Z,101525.13
2023-05-20T01:26:27.037Z,101443.84
2023-05-20T01:28:54.267Z,101527.19
2023-05-20T01:31:32.492Z,101516.66
2023-05-20T01:34:00.187Z,101455.78
2023-05-20T01:36:27.611Z,101510.72
2023-05-20T01:38:55.231Z,101503.53
2023-05-20T01:41:25.073Z,101458.31
2023-05-20T01:43:51.622Z,101488.97
2023-05-20T01:46:18.092Z,101499.53
2023-05-20T01:48:44.455Z,101495.53
2023-05-20T01:51:10.955Z,101456.75
2023-05-20T01:53:37.335Z,101504.44
2023-05-20T01:56:05.785Z,101516.00
2023-05-20T01:58:32.278Z,101504.03
2023-05-20T02:00:58.765Z,101512.53
2023-05-20T02:03:25.237Z,101460.25
2023-05-20T02:05:51.720Z,101513.38
2023-05-20T02:08:18.164Z,101498.38
2023-05-20T02:10:44.580Z,101490.22
2023-05-20T02:13:10.983Z,101529.97
2023-05-20T02:15:41.574Z,101502.00
2023-05-20T02:18:08.406Z,101493.44
2023-05-20T02:20:38.434Z,101519.41
2023-05-20T02:23:05.862Z,101482.16
2023-05-20T02:25:32.915Z,101514.06
2023-05-20T02:27:59.585Z,101496.66
2023-05-20T02:30:26.966Z,101511.44
2023-05-20T02:32:53.424Z,101520.06
2023-05-20T02:35:19.983Z,101491.47
2023-05-20T02:37:46.481Z,101493.88
2023-05-20T02:40:12.899Z,101496.06
2023-05-20T02:42:39.320Z,101468.31
2023-05-20T02:45:06.379Z,101474.34
2023-05-20T02:47:32.784Z,101440.38
2023-05-20T02:49:59.201Z,101504.47
2023-05-20T02:52:25.567Z,101481.72
2023-05-20T02:54:52.744Z,101485.34
2023-05-20T02:57:19.211Z,101432.53
2023-05-20T02:59:45.980Z,101410.81
2023-05-20T03:02:12.330Z,101488.63
2023-05-20T03:04:38.936Z,101455.91
2023-05-20T03:07:07.505Z,101476.59
2023-05-20T03:09:33.910Z,101481.81
2023-05-20T03:12:00.435Z,101495.56
2023-05-20T03:14:26.874Z,101474.25
2023-05-20T03:16:55.916Z,101482.84
2023-05-20T03:19:22.618Z,101480.63
2023-05-20T03:21:50.565Z,101465.44
2023-05-20T03:24:16.996Z,101458.81
2023-05-20T03:26:43.823Z,101374.19
2023-05-20T03:29:10.789Z,101485.91
2023-05-20T03:31:37.195Z,101451.38
2023-05-20T03:34:03.610Z,101470.22
2023-05-20T03:36:30.017Z,101461.84
2023-05-20T03:38:56.518Z,101472.94
2023-05-20T03:41:23.077Z,101425.13
2023-05-20T03:43:49.508Z,101453.75
2023-05-20T03:46:16.086Z,101476.56
2023-05-20T03:48:42.540Z,101454.03
2023-05-20T03:51:08.911Z,101423.91
2023-05-20T03:53:35.297Z,101462.06
2023-05-20T03:56:01.714Z,101482.69
2023-05-20T03:58:29.215Z,101473.66
2023-05-20T04:00:55.890Z,101485.88
2023-05-20T04:03:22.899Z,101435.28
2023-05-20T04:05:50.573Z,101495.03
2023-05-20T04:08:18.729Z,101469.69
2023-05-20T04:10:46.309Z,101495.66
2023-05-20T04:13:12.725Z,101465.09
2023-05-20T04:15:39.205Z,101455.69
2023-05-20T04:18:06.219Z,101489.97
2023-05-20T04:20:33.184Z,101491.69
2023-05-20T04:22:59.679Z,101474.41
2023-05-20T04:25:26.112Z,101478.13
2023-05-20T04:27:54.197Z,101428.19
2023-05-20T04:30:22.009Z,101478.34
2023-05-20T04:32:50.583Z,101436.75
2023-05-20T04:35:17.439Z,101413.66
2023-05-20T04:37:47.983Z,101486.69
2023-05-20T04:40:14.682Z,101441.66
2023-05-20T04:42:41.100Z,101472.75
2023-05-20T04:45:08.769Z,101449.13
2023-05-20T04:47:38.628Z,101481.91
2023-05-20T04:50:13.413Z,101476.31
2023-05-20T04:52:41.798Z,101452.97
2023-05-20T04:55:12.681Z,101413.75
2023-05-20T04:57:42.277Z,101465.63
2023-05-20T05:00:10.620Z,101474.56
2023-05-20T05:02:37.484Z,101454.19
2023-05-20T05:05:04.204Z,101418.31
2023-05-20T05:07:31.060Z,101416.28
2023-05-20T05:09:57.529Z,101450.94
2023-05-20T05:12:24.018Z,101457.63
2023-05-20T05:14:50.944Z,101443.03
2023-05-20T05:17:17.853Z,101419.50
2023-05-20T05:19:44.213Z,101371.91
2023-05-20T05:22:10.774Z,101455.75
2023-05-20T05:24:37.206Z,101455.66
2023-05-20T05:27:03.789Z,101372.34
2023-05-20T05:29:30.331Z,101457.78
2023-05-20T05:31:56.778Z,101338.09
2023-05-20T05:34:23.211Z,101444.59
2023-05-20T05:36:49.616Z,101450.75
2023-05-20T05:39:16.256Z,101414.22
2023-05-20T05:41:42.687Z,101456.19
2023-05-20T05:44:09.179Z,101445.97
2023-05-20T05:46:35.689Z,101450.75
2023-05-20T05:49:02.276Z,101445.25
2023-05-20T05:51:29.050Z,101450.16
2023-05-20T05:53:55.458Z,101349.53
2023-05-20T05:56:21.848Z,101408.47
2023-05-20T05:58:48.403Z,101446.28
2023-05-20T06:01:14.863Z,101309.28
2023-05-20T06:03:41.351Z,101410.00
2023-05-20T06:06:07.939Z,101415.69
2023-05-20T06:08:34.374Z,101439.91
2023-05-20T06:11:00.776Z,101451.84
2023-05-20T06:13:27.146Z,101444.41
2023-05-20T06:15:53.737Z,101419.59
2023-05-20T06:18:20.135Z,101390.03
2023-05-20T06:20:46.528Z,101346.78
2023-05-20T06:23:12.973Z,101416.50
2023-05-20T06:25:39.401Z,101385.19
2023-05-20T06:28:05.840Z,101443.94
2023-05-20T06:30:32.274Z,101399.03
2023-05-20T06:32:58.723Z,101430.75
2023-05-20T06:35:25.233Z,101427.91
2023-05-20T06:37:51.660Z,101346.50
2023-05-20T06:40:18.206Z,101417.72
2023-05-20T06:42:44.668Z,101405.41
2023-05-20T06:45:11.558Z,101378.09
2023-05-20T06:47:38.094Z,101395.38
2023-05-20T06:50:04.853Z,101414.81
2023-05-20T06:52:31.229Z,101418.50
2023-05-20T06:54:57.595Z,101273.16
2023-05-20T06:57:23.990Z,101385.03
2023-05-20T06:59:50.454Z,101397.34
2023-05-20T07:02:16.903Z,101402.75
2023-05-20T07:04:43.479Z,101375.66
2023-05-20T07:07:09.902Z,101393.16
2023-05-20T07:09:36.289Z,101254.06
2023-05-20T07:12:03.560Z,101327.19
2023-05-20T07:14:30.054Z,101264.75
2023-05-20T07:16:56.461Z,101359.56
2023-05-20T07:19:22.918Z,101366.28
2023-05-20T07:21:50.030Z,101378.41
2023-05-20T07:24:17.286Z,101353.59
2023-05-20T07:26:43.936Z,101400.25
2023-05-20T07:29:10.416Z,101383.00
2023-05-20T07:31:36.895Z,101353.75
2023-05-20T07:34:03.403Z,101250.81
2023-05-20T07:36:30.685Z,101385.56
2023-05-20T07:39:03.880Z,101400.59
2023-05-20T07:41:31.496Z,101375.03
2023-05-20T07:43:57.895Z,101362.22
2023-05-20T07:46:24.340Z,101385.28
2023-05-20T07:48:50.798Z,101387.78
2023-05-20T07:51:17.188Z,101393.25
2023-05-20T07:53:43.613Z,101351.75
2023-05-20T07:56:10.057Z,101388.91
2023-05-20T07:58:36.534Z,101365.94
2023-05-20T08:01:03.247Z,101364.69
2023-05-20T08:03:29.825Z,101382.94
2023-05-20T08:05:56.275Z,101320.13
2023-05-20T08:08:22.635Z,101244.28
2023-05-20T08:10:50.903Z,101353.16
2023-05-20T08:13:17.349Z,101346.56
2023-05-20T08:15:43.763Z,101339.28
2023-05-20T08:18:10.227Z,101345.91
2023-05-20T08:20:36.699Z,101358.00
2023-05-20T08:23:03.184Z,101368.09
2023-05-20T08:25:32.645Z,101348.84
2023-05-20T08:28:03.875Z,101324.13
2023-05-20T08:30:30.682Z,101348.84
2023-05-20T08:32:57.244Z,101347.31
2023-05-20T08:35:24.777Z,101340.88
2023-05-20T08:37:53.914Z,101356.13
2023-05-20T08:40:21.317Z,101352.69
2023-05-20T08:42:54.347Z,101351.34
2023-05-20T08:45:26.450Z,101340.53
2023-05-20T08:47:53.677Z,101339.91
2023-05-20T08:50:21.067Z,101349.59
2023-05-20T08:52:49.128Z,101358.59
2023-05-20T08:55:26.901Z,101346.47
2023-05-20T08:57:55.149Z,101338.84
2023-05-20T09:00:27.185Z,101348.72
2023-05-20T09:02:54.725Z,101338.56
2023-05-20T09:05:22.201Z,101343.88
2023-05-20T09:07:49.235Z,101368.44
2023-05-20T09:10:15.788Z,101350.06
2023-05-20T09:12:42.263Z,101337.00
2023-05-20T09:15:09.087Z,101365.06
2023-05-20T09:17:37.131Z,101334.59
2023-05-20T09:20:08.809Z,101325.41
2023-05-20T09:22:35.565Z,101354.13
2023-05-20T09:25:02.069Z,101263.66
2023-05-20T09:27:28.456Z,101342.97
2023-05-20T09:29:54.865Z,101355.44
2023-05-20T09:32:24.238Z,101329.00
2023-05-20T09:34:51.125Z,101311.03
2023-05-20T09:37:22.171Z,101306.03
2023-05-20T09:40:03.893Z,101314.09
2023-05-20T09:42:47.866Z,101342.19
2023-05-20T09:45:14.308Z,101309.63
2023-05-20T09:47:41.660Z,101335.38
2023-05-20T09:50:08.963Z,101335.38
2023-05-20T09:52:37.295Z,101300.00
2023-05-20T09:55:05.812Z,101296.72
2023-05-20T09:57:36.282Z,101336.66
2023-05-20T10:00:08.581Z,101341.84
2023-05-20T10:02:36.039Z,101288.75
2023-05-20T10:05:08.154Z,101243.91
2023-05-20T10:07:42.592Z,101337.91
2023-05-20T10:10:21.631Z,101328.97
2023-05-20T10:13:00.060Z,101325.94
2023-05-20T10:16:03.463Z,101329.69
2023-05-20T10:18:50.680Z,101299.06
2023-05-20T10:21:18.838Z,101310.75
2023-05-20T10:23:45.961Z,101307.53
2023-05-20T10:26:12.588Z,101301.00
2023-05-20T10:28:41.110Z,101278.13
2023-05-20T10:31:23.968Z,101298.56
2023-05-20T10:33:53.262Z,101291.31
2023-05-20T10:36:28.151Z,101316.00
2023-05-20T10:38:59.450Z,101200.50
2023-05-20T10:41:30.570Z,101309.66
2023-05-20T10:44:04.646Z,101269.28
2023-05-20T10:46:41.927Z,101315.00
2023-05-20T10:49:25.160Z,101276.56
2023-05-20T10:51:54.209Z,101299.97
2023-05-20T10:54:22.151Z,101301.00
2023-05-20T10:56:53.664Z,101265.94
2023-05-20T10:59:21.654Z,101295.69
2023-05-20T11:01:48.466Z,101291.84
2023-05-20T11:04:17.238Z,101220.97
2023-05-20T11:06:54.209Z,101248.34
2023-05-20T11:09:20.965Z,101291.88
2023-05-20T11:11:47.803Z,101304.84
2023-05-20T11:14:14.986Z,101298.34
2023-05-20T11:16:42.298Z,101278.41
2023-05-20T11:19:09.496Z,101240.38
2023-05-20T11:21:43.157Z,101259.41
2023-05-20T11:24:09.635Z,101280.28
2023-05-20T11:26:36.883Z,101280.75
2023-05-20T11:29:03.526Z,101205.97
2023-05-20T11:31:31.818Z,101276.56
2023-05-20T11:34:02.297Z,101196.03
2023-05-20T11:36:28.850Z,101276.31
2023-05-20T11:38:58.516Z,101286.59
2023-05-20T11:41:28.641Z,101211.28
2023-05-20T11:43:57.152Z,101191.84
2023-05-20T11:46:23.600Z,101270.13
2023-05-20T11:48:56.903Z,101269.38
2023-05-20T11:51:27.310Z,101190.97
2023-05-20T11:53:54.244Z,101249.69
2023-05-20T11:56:21.921Z,101256.66
2023-05-20T11:58:48.492Z,101256.00
2023-05-20T12:03:47.367Z,101252.91
2023-05-20T12:06:14.059Z,101227.94
2023-05-20T12:08:40.533Z,101219.16
2023-05-20T12:11:07.108Z,101213.84
2023-05-20T12:13:35.215Z,101251.94
2023-05-20T12:16:02.321Z,101241.88
2023-05-20T12:18:28.792Z,101196.91
2023-05-20T12:20:55.275Z,101226.16
2023-05-20T12:23:21.829Z,101244.00
2023-05-20T12:25:49.825Z,101233.94
2023-05-20T12:28:17.637Z,101254.97
2023-05-20T12:30:44.085Z,101215.72
2023-05-20T12:33:10.488Z,101150.59
2023-05-20T12:35:43.733Z,101234.59
2023-05-20T12:38:10.478Z,101263.25
2023-05-20T12:40:42.030Z,101231.41
2023-05-20T12:43:08.615Z,101235.91
2023-05-20T12:45:35.120Z,101211.03
2023-05-20T12:48:02.119Z,101219.22
2023-05-20T12:50:28.614Z,101238.91
2023-05-20T12:52:55.400Z,101231.19
2023-05-20T12:55:22.130Z,101213.72
2023-05-20T12:57:49.749Z,101228.88
2023-05-20T13:00:16.629Z,101232.44
2023-05-20T13:02:43.639Z,101230.19
2023-05-20T13:05:11.226Z,101239.06
2023-05-20T13:07:37.995Z,101209.44
2023-05-20T13:10:05.253Z,101220.03
2023-05-20T13:12:31.767Z,101132.84
2023-05-20T13:14:58.213Z,101202.91
2023-05-20T13:17:24.753Z,101165.88
2023-05-20T13:19:51.533Z,101208.91
2023-05-20T13:22:18.132Z,101135.63
2023-05-20T13:24:44.559Z,101224.66
2023-05-20T13:27:11.068Z,101205.53
2023-05-20T13:29:37.674Z,101205.63
2023-05-20T13:32:04.420Z,101205.41
2023-05-20T13:34:31.606Z,101187.25
2023-05-20T13:36:58.163Z,101161.03
2023-05-20T13:39:24.982Z,101159.63
2023-05-20T13:41:53.394Z,101182.13
2023-05-20T13:44:19.826Z,101185.25
2023-05-20T13:46:46.321Z,101169.50
2023-05-20T13:49:12.967Z,101165.94
2023-05-20T13:51:39.343Z,101134.63
2023-05-20T13:54:06.546Z,101144.19
2023-05-20T13:56:33.765Z,101171.19
2023-05-20T13:59:00.177Z,101180.22
2023-05-20T14:01:28.444Z,101177.63
2023-05-20T14:03:55.015Z,101128.25
2023-05-20T14:06:21.590Z,101141.38
2023-05-20T14:08:47.975Z,101168.06
2023-05-20T14:11:14.363Z,101171.09
2023-05-20T14:13:41.356Z,101160.06
2023-05-20T14:16:07.851Z,101058.28
2023-05-20T14:18:34.242Z,101110.63
2023-05-20T14:21:00.990Z,101068.44
2023-05-20T14:23:27.400Z,101142.69
2023-05-20T14:25:53.882Z,101134.50
2023-05-20T14:28:20.341Z,101129.88
2023-05-20T14:30:46.793Z,101050.69
2023-05-20T14:33:13.259Z,101120.47
2023-05-20T14:35:39.696Z,101052.47
2023-05-20T14:38:06.793Z,101138.84
2023-05-20T14:40:33.326Z,101107.34
2023-05-20T14:43:00.086Z,101115.25
2023-05-20T14:45:26.451Z,101108.25
2023-05-20T14:47:52.985Z,101047.72
2023-05-20T14:50:19.466Z,101111.28
2023-05-20T14:52:46.168Z,101116.84
2023-05-20T14:55:12.613Z,101104.81
2023-05-20T14:57:39.061Z,101046.38
2023-05-20T15:00:06.025Z,101109.63
2023-05-20T15:02:32.650Z,101082.31
2023-05-20T15:04:59.221Z,101130.47
2023-05-20T15:07:26.550Z,101104.13
2023-05-20T15:09:53.018Z,101137.94
2023-05-20T15:12:19.434Z,101127.00
2023-05-20T15:14:45.864Z,101070.97
2023-05-20T15:17:12.781Z,101072.00
2023-05-20T15:19:41.626Z,101080.56
2023-05-20T15:22:08.417Z,101123.28
2023-05-20T15:24:34.837Z,101132.00
2023-05-20T15:27:01.250Z,101121.28
2023-05-20T15:29:27.717Z,101031.16
2023-05-20T15:31:54.117Z,101084.03
2023-05-20T15:34:20.513Z,101131.31
2023-05-20T15:36:46.935Z,101088.31
2023-05-20T15:39:13.346Z,101109.28
2023-05-20T15:41:42.140Z,101039.41
2023-05-20T15:44:08.915Z,101077.19
2023-05-20T15:46:35.698Z,101090.00
2023-05-20T15:49:02.239Z,101106.06
2023-05-20T15:51:28.770Z,101087.47
2023-05-20T15:53:55.235Z,101076.72
2023-05-20T15:56:22.260Z,101083.91
2023-05-20T15:58:48.771Z,101092.81
2023-05-20T16:01:15.384Z,101018.53
2023-05-20T16:03:41.926Z,101093.13
2023-05-20T16:06:10.405Z,101049.59
2023-05-20T16:08:37.559Z,101009.50
2023-05-20T16:11:04.705Z,101111.88
2023-05-20T16:13:31.497Z,101094.06
2023-05-20T16:15:58.157Z,101028.94
2023-05-20T16:18:26.158Z,101010.22
2023-05-20T16:20:52.598Z,101036.75
2023-05-20T16:23:19.014Z,101082.69
2023-05-20T16:25:45.622Z,101099.59
2023-05-20T16:28:12.033Z,101106.81
2023-05-20T16:30:38.499Z,101100.16
2023-05-20T16:33:04.960Z,101108.00
2023-05-20T16:35:31.401Z,101109.88
2023-05-20T16:37:58.231Z,101111.16
2023-05-20T16:40:24.687Z,101093.97
2023-05-20T16:42:51.185Z,101083.69
2023-05-20T16:45:17.607Z,101108.88
2023-05-20T16:47:44.135Z,101113.81
2023-05-20T16:50:10.671Z,101116.66
2023-05-20T16:52:40.017Z,101119.16
2023-05-20T16:55:08.343Z,101117.06
2023-05-20T16:57:35.188Z,101127.03
2023-05-20T17:00:02.268Z,101089.91
2023-05-20T17:02:28.778Z,101118.50
2023-05-20T17:04:55.310Z,101049.16
2023-05-20T17:07:21.721Z,101141.72
2023-05-20T17:09:48.145Z,101125.94
2023-05-20T17:12:14.609Z,101133.31
2023-05-20T17:14:40.970Z,101103.28
2023-05-20T17:17:09.233Z,101114.72
2023-05-20T17:19:36.198Z,101112.25
2023-05-20T17:22:02.665Z,101117.09
2023-05-20T17:24:29.053Z,101139.69
2023-05-20T17:26:55.502Z,101130.75
2023-05-20T17:29:21.956Z,101119.47
2023-05-20T17:31:48.417Z,101110.94
2023-05-20T17:34:14.877Z,101115.13
2023-05-20T17:36:42.245Z,101125.28
2023-05-20T17:39:09.657Z,101128.84
2023-05-20T17:41:36.127Z,101123.13
2023-05-20T17:44:02.476Z,101107.56
2023-05-20T17:46:28.987Z,101070.53
2023-05-20T17:48:56.764Z,101110.81
2023-05-20T17:51:23.311Z,101092.44
2023-05-20T17:53:49.807Z,101122.81
2023-05-20T17:56:16.520Z,101113.41
2023-05-20T17:58:44.992Z,101073.53
2023-05-20T18:01:11.456Z,101092.75
2023-05-20T18:03:39.701Z,101108.78
2023-05-20T18:06:06.527Z,101137.72
2023-05-20T18:08:33.776Z,101132.56
2023-05-20T18:11:00.228Z,101129.34
2023-05-20T18:13:26.650Z,101145.34
2023-05-20T18:15:53.143Z,101081.28
2023-05-20T18:18:19.676Z,101134.34
2023-05-20T18:20:46.094Z,101134.69
2023-05-20T18:23:12.525Z,101124.00
2023-05-20T18:25:41.103Z,101110.25
2023-05-20T18:28:09.675Z,101148.50
2023-05-20T18:30:36.595Z,101030.41
2023-05-20T18:33:03.390Z,101107.34
2023-05-20T18:35:29.792Z,101130.97
2023-05-20T18:37:56.352Z,101036.44
2023-05-20T18:40:22.807Z,101159.97
2023-05-20T18:42:49.255Z,101140.09
2023-05-20T18:45:16.075Z,101115.31
2023-05-20T18:47:43.616Z,101117.38
2023-05-20T18:50:10.765Z,101141.84
2023-05-20T18:52:37.248Z,101139.81
2023-05-20T18:55:04.020Z,101076.63
2023-05-20T18:57:33.217Z,101124.16
2023-05-20T18:59:59.688Z,101159.47
2023-05-20T19:02:26.094Z,101119.78
2023-05-20T19:04:52.571Z,101123.97
2023-05-20T19:07:19.019Z,101139.88
2023-05-20T19:09:45.525Z,101113.47
2023-05-20T19:12:11.960Z,101065.00
2023-05-20T19:14:38.368Z,101111.16
2023-05-20T19:17:05.475Z,101132.44
2023-05-20T19:19:32.028Z,101150.97
2023-05-20T19:21:58.681Z,101139.66
2023-05-20T19:24:25.596Z,101144.09
2023-05-20T19:26:52.044Z,101058.94
2023-05-20T19:29:18.538Z,101148.25
2023-05-20T19:31:45.823Z,101059.88
2023-05-20T19:34:12.214Z,101155.50
2023-05-20T19:36:40.232Z,101144.47
2023-05-20T19:39:07.673Z,101144.97
2023-05-20T19:41:34.292Z,101159.84
2023-05-20T19:44:01.686Z,101141.88
2023-05-20T19:46:28.313Z,101142.56
2023-05-20T19:48:54.791Z,101138.63
2023-05-20T19:51:21.577Z,101150.47
2023-05-20T19:53:47.927Z,101132.47
2023-05-20T19:56:19.174Z,101149.44
2023-05-20T19:58:46.320Z,101135.63
2023-05-20T20:01:16.956Z,101160.53
2023-05-20T20:03:44.147Z,101163.44
2023-05-20T20:06:10.862Z,101133.13
2023-05-20T20:08:41.608Z,101162.66
2023-05-20T20:11:08.996Z,101128.97
2023-05-20T20:13:35.516Z,101126.47
2023-05-20T20:16:01.971Z,101127.47
2023-05-20T20:18:28.398Z,101054.03
2023-05-20T20:20:54.772Z,101153.31
2023-05-20T20:23:21.374Z,101158.03
2023-05-20T20:25:48.250Z,101124.09
2023-05-20T20:28:14.754Z,101083.72
2023-05-20T20:30:41.112Z,101151.41
2023-05-20T20:33:09.478Z,101076.19
2023-05-20T20:35:37.039Z,101148.38
2023-05-20T20:38:08.765Z,101131.47
2023-05-20T20:40:41.836Z,101154.81
2023-05-20T20:43:10.790Z,101144.69
2023-05-20T20:45:37.392Z,101145.31
2023-05-20T20:48:08.139Z,101087.81
2023-05-20T20:50:35.703Z,101146.09
2023-05-20T20:53:02.350Z,101012.00
2023-05-20T20:55:31.620Z,101032.28
2023-05-20T20:58:02.352Z,101027.38
2023-05-20T21:00:28.752Z,101045.66
2023-05-20T21:02:55.283Z,101133.19
2023-05-20T21:05:26.277Z,101112.66
2023-05-20T21:07:58.222Z,101138.41
2023-05-20T21:10:29.584Z,101080.00
2023-05-20T21:12:57.460Z,101141.78
2023-05-20T21:15:24.883Z,101142.03
2023-05-20T21:17:51.522Z,101146.25
2023-05-20T21:20:21.353Z,101131.84
2023-05-20T21:22:48.270Z,101131.84
2023-05-20T21:25:14.922Z,101143.44
2023-05-20T21:27:41.484Z,101049.63
2023-05-20T21:30:10.111Z,101030.63
2023-05-20T21:32:37.040Z,101079.91
2023-05-20T21:35:03.903Z,101113.09
2023-05-20T21:37:30.757Z,101120.75
2023-05-20T21:39:57.122Z,101122.47
2023-05-20T21:42:23.546Z,101124.50
2023-05-20T21:44:49.958Z,101121.34
2023-05-20T21:47:16.350Z,101126.50
2023-05-20T21:49:42.931Z,101085.38
2023-05-20T21:52:09.673Z,101123.16
2023-05-20T21:54:36.189Z,101109.16
2023-05-20T21:57:02.696Z,101046.47
2023-05-20T21:59:29.065Z,101093.25
2023-05-20T22:01:56.261Z,101078.50
2023-05-20T22:04:23.099Z,101039.44
2023-05-20T22:06:50.986Z,101024.53
2023-05-20T22:09:17.490Z,101117.22
2023-05-20T22:11:45.038Z,101086.25
2023-05-20T22:14:16.210Z,101106.91
2023-05-20T22:16:46.688Z,101115.00
2023-05-20T22:19:15.139Z,101018.13
2023-05-20T22:21:50.406Z,101117.66
2023-05-20T22:24:18.035Z,101081.84
2023-05-20T22:26:44.681Z,101105.06
2023-05-20T22:29:11.132Z,101085.72
2023-05-20T22:31:38.116Z,101063.22
2023-05-20T22:34:05.385Z,101092.47
2023-05-20T22:36:36.044Z,101069.53
2023-05-20T22:39:04.093Z,101094.75
2023-05-20T22:41:30.889Z,101056.75
2023-05-20T22:43:57.461Z,100989.00
2023-05-20T22:46:24.549Z,100992.84
2023-05-20T22:48:55.300Z,101068.53
2023-05-20T22:51:22.618Z,101043.75
2023-05-20T22:53:49.302Z,101080.00
2023-05-20T22:56:16.015Z,101056.16
2023-05-20T22:58:42.541Z,100986.69
2023-05-20T23:01:09.500Z,101065.66
2023-05-20T23:03:36.404Z,101073.19
2023-05-20T23:06:02.887Z,100990.84
2023-05-20T23:08:29.447Z,101062.25
2023-05-20T23:10:55.985Z,101063.09
2023-05-20T23:13:22.447Z,101054.59
2023-05-20T23:15:49.131Z,101007.31
2023-05-20T23:18:16.103Z,101043.16
2023-05-20T23:20:42.637Z,101028.50
2023-05-20T23:23:11.467Z,101054.81
2023-05-20T23:25:38.546Z,101038.25
2023-05-20T23:28:05.771Z,101034.91
2023-05-20T23:30:32.167Z,101043.84
2023-05-20T23:32:58.648Z,101023.94
2023-05-20T23:35:25.642Z,101021.94
2023-05-20T23:37:52.360Z,101017.50
2023-05-20T23:40:19.033Z,100994.56
2023-05-20T23:42:45.451Z,101004.31
2023-05-20T23:45:12.083Z,101020.66
2023-05-20T23:47:38.494Z,100985.16
2023-05-20T23:50:05.244Z,101006.44
2023-05-20T23:52:31.658Z,101006.84
2023-05-20T23:54:58.541Z,101009.22
2023-05-20T23:57:24.924Z,100989.09
2023-05-20T23:59:51.495Z,100979.94
